Time;durP1;ratioP1;P1;durP2;ratioP2;P2;SDS_P1;SDS_P2;PMS_P1;PMS_P2;Temp;Humidity;BMP_temperature;BMP_pressure;BME280_temperature;BME280_humidity;BME280_pressure;Samples;Min_cycle;Max_cycle;Signal;HPM_P1;HPM_P2
2023/06/19 00:01:53;;;;;;;20.83;19.90;;;23.60;27.00;;;;;;2612617;54;20250;-73
2023/06/19 00:07:41;;;;;;;20.60;19.60;;;23.40;29.40;;;;;;2613066;54;20166;-73
2023/06/19 00:13:28;;;;;;;21.67;20.67;;;23.30;33.80;;;;;;2613559;54;20245;-74
2023/06/19 00:19:17;;;;;;;20.10;19.03;;;23.00;41.50;;;;;;2614017;54;20154;-74
2023/06/19 00:25:05;;;;;;;21.33;20.23;;;23.00;46.70;;;;;;2614264;54;20419;-73
2023/06/19 00:30:53;;;;;;;21.87;20.30;;;22.80;48.20;;;;;;2612890;54;20466;-74
2023/06/19 00:36:41;;;;;;;21.63;20.53;;;22.80;51.10;;;;;;2613678;39;20321;-73
2023/06/19 00:42:28;;;;;;;21.57;20.47;;;22.60;56.40;;;;;;2614043;54;20134;-73
2023/06/19 00:48:16;;;;;;;21.20;20.10;;;22.70;56.20;;;;;;2613976;54;20131;-74
2023/06/19 00:51:15;;;;;;;21.37;20.27;;;22.60;57.60;;;;;;2614603;39;20829;-73
2023/06/19 00:53:40;;;;;;;21.37;20.07;;;22.60;58.70;;;;;;2613659;54;20423;-73
2023/06/19 00:59:29;;;;;;;20.57;19.47;;;22.60;61.30;;;;;;2614647;54;20652;-74
2023/06/19 01:05:19;;;;;;;20.90;19.80;;;22.50;69.00;;;;;;2614571;54;20391;-73
2023/06/19 01:11:09;;;;;;;21.13;19.83;;;22.50;71.70;;;;;;2613850;54;20391;-74
2023/06/19 01:16:56;;;;;;;20.23;19.23;;;22.30;77.30;;;;;;2614857;39;20885;-73
2023/06/19 01:22:44;;;;;;;19.27;18.37;;;22.30;88.90;;;;;;2614583;54;20127;-75
2023/06/19 01:28:32;;;;;;;21.43;20.13;;;22.10;96.70;;;;;;2614225;54;20204;-73
2023/06/19 01:34:21;;;;;;;21.00;19.90;;;22.00;99.90;;;;;;2612798;54;20423;-74
2023/06/19 01:40:09;;;;;;;21.33;20.13;;;21.80;99.90;;;;;;2613431;54;20494;-74
2023/06/19 01:45:59;;;;;;;20.77;19.67;;;21.70;99.90;;;;;;2614266;54;20571;-73
2023/06/19 01:55:43;;;;;;;20.03;19.03;;;21.50;99.90;;;;;;2613372;54;20457;-72
2023/06/19 02:01:31;;;;;;;20.07;19.07;;;21.30;99.90;;;;;;2613620;54;20395;-72
2023/06/19 02:07:18;;;;;;;20.00;19.03;;;20.90;99.90;;;;;;2614950;54;20832;-74
2023/06/19 02:13:06;;;;;;;21.33;20.23;;;20.70;99.90;;;;;;2614876;54;20127;-72
2023/06/19 02:18:55;;;;;;;20.20;19.10;;;20.70;99.90;;;;;;2614079;54;20145;-72
2023/06/19 02:24:44;;;;;;;21.03;19.83;;;21.20;99.90;;;;;;2613581;54;20395;-72
2023/06/19 02:30:32;;;;;;;20.40;19.30;;;21.10;99.90;;;;;;2612003;54;20403;-72
2023/06/19 02:36:20;;;;;;;19.97;19.00;;;21.00;99.90;;;;;;2614631;39;20589;-71
2023/06/19 02:42:08;;;;;;;19.60;18.50;;;21.00;99.90;;;;;;2613206;54;20127;-73
2023/06/19 02:47:55;;;;;;;19.13;18.07;;;21.20;99.90;;;;;;2613330;54;20387;-71
2023/06/19 02:51:14;;;;;;;20.67;19.47;;;21.30;99.90;;;;;;2613986;54;20933;-73
2023/06/19 02:53:41;;;;;;;19.03;18.03;;;21.50;99.90;;;;;;2612686;54;21019;-70
2023/06/19 02:59:29;;;;;;;19.97;18.97;;;21.60;99.90;;;;;;2614648;54;20454;-72
2023/06/19 03:05:17;;;;;;;20.10;19.10;;;21.60;99.90;;;;;;2613417;54;20146;-72
2023/06/19 03:11:05;;;;;;;21.23;19.97;;;21.80;99.90;;;;;;2614309;54;20231;-72
2023/06/19 03:16:53;;;;;;;20.27;19.27;;;22.00;99.90;;;;;;2612991;39;20551;-72
2023/06/19 03:22:41;;;;;;;20.10;19.00;;;22.00;99.90;;;;;;2613371;54;20134;-72
2023/06/19 03:28:29;;;;;;;19.70;18.70;;;22.10;99.90;;;;;;2614243;46;20438;-71
2023/06/19 03:34:17;;;;;;;17.43;16.43;;;22.10;99.90;;;;;;2615261;54;20142;-71
2023/06/19 03:40:05;;;;;;;17.37;16.40;;;22.00;99.90;;;;;;2614970;54;20259;-71
2023/06/19 03:45:53;;;;;;;17.57;16.70;;;21.90;99.90;;;;;;2613912;54;20402;-72
2023/06/19 03:55:44;;;;;;;16.20;15.40;;;21.70;99.90;;;;;;2612195;54;20399;-71
2023/06/19 04:01:31;;;;;;;16.90;15.70;;;21.50;99.90;;;;;;2613868;54;20491;-71
2023/06/19 04:07:19;;;;;;;16.70;15.80;;;21.50;99.90;;;;;;2613443;39;20677;-72
2023/06/19 04:13:07;;;;;;;15.33;14.47;;;21.30;99.90;;;;;;2613527;54;20122;-71
2023/06/19 04:18:55;;;;;;;14.30;13.60;;;21.20;99.90;;;;;;2613957;39;20537;-71
2023/06/19 04:21:58;;;;;;;13.47;12.87;;;21.20;99.90;;;;;;2614527;54;20428;-72
2023/06/19 04:24:23;;;;;;;13.37;12.70;;;21.10;99.90;;;;;;2613458;46;20182;-71
2023/06/19 04:30:11;;;;;;;13.87;13.17;;;21.10;99.90;;;;;;2613393;54;20145;-70
2023/06/19 04:36:00;;;;;;;13.40;12.80;;;21.20;99.90;;;;;;2614859;54;20896;-71
2023/06/19 04:41:48;;;;;;;13.57;12.87;;;21.20;99.90;;;;;;2614296;54;20395;-72
2023/06/19 04:47:36;;;;;;;12.80;12.10;;;21.20;99.90;;;;;;2614298;54;20197;-71
2023/06/19 04:53:23;;;;;;;13.80;13.07;;;21.20;99.90;;;;;;2612675;54;20426;-71
2023/06/19 04:59:11;;;;;;;12.83;12.13;;;21.20;99.90;;;;;;2614555;54;20146;-71
2023/06/19 05:05:02;;;;;;;12.30;11.60;;;21.00;99.90;;;;;;2612819;54;20130;-72
2023/06/19 05:10:51;;;;;;;11.83;11.23;;;21.40;99.90;;;;;;2613439;54;20500;-70
2023/06/19 05:16:39;;;;;;;12.90;12.30;;;21.40;99.90;;;;;;2613407;54;20166;-71
2023/06/19 05:22:27;;;;;;;11.80;11.20;;;21.20;99.90;;;;;;2613266;54;20373;-72
2023/06/19 05:28:14;;;;;;;13.50;12.70;;;21.80;99.90;;;;;;2613758;54;20862;-72
2023/06/19 05:34:02;;;;;;;12.53;11.93;;;21.90;99.90;;;;;;2613680;54;20130;-71
2023/06/19 05:39:50;;;;;;;12.73;12.10;;;21.20;99.90;;;;;;2611897;54;20150;-72
2023/06/19 05:45:37;;;;;;;12.00;11.40;;;21.20;99.90;;;;;;2613460;54;20123;-72
2023/06/19 05:55:43;;;;;;;12.03;11.33;;;21.30;99.90;;;;;;2612322;54;20414;-71
2023/06/19 06:01:32;;;;;;;12.63;12.03;;;21.80;99.90;;;;;;2612275;39;20823;-70
2023/06/19 06:07:19;;;;;;;12.20;11.40;;;21.50;99.90;;;;;;2611887;54;20426;-69
2023/06/19 06:13:07;;;;;;;12.00;11.40;;;21.40;99.90;;;;;;2612189;54;20223;-68
2023/06/19 06:18:55;;;;;;;12.50;11.90;;;21.40;99.90;;;;;;2604251;54;20410;-66
2023/06/19 06:24:43;;;;;;;12.70;12.00;;;21.60;99.90;;;;;;2609153;54;20746;-76
2023/06/19 06:30:31;;;;;;;11.90;11.30;;;21.30;99.90;;;;;;2610834;47;20146;-74
2023/06/19 06:36:18;;;;;;;11.07;10.57;;;21.40;99.90;;;;;;2610331;54;20251;-74
2023/06/19 06:42:07;;;;;;;11.80;11.20;;;21.60;99.90;;;;;;2614150;54;20135;-74
2023/06/19 06:47:54;;;;;;;12.87;12.07;;;21.50;99.90;;;;;;2612758;39;20777;-75
2023/06/19 06:51:14;;;;;;;11.57;10.87;;;21.70;99.90;;;;;;2610138;54;20538;-74
2023/06/19 06:53:40;;;;;;;11.33;10.83;;;21.70;99.90;;;;;;2612883;54;20158;-74
2023/06/19 06:59:28;;;;;;;12.80;12.00;;;21.40;99.90;;;;;;2612064;54;20130;-74
2023/06/19 07:05:16;;;;;;;12.20;11.50;;;21.40;99.90;;;;;;2613154;54;20130;-74
2023/06/19 07:11:04;;;;;;;12.07;11.47;;;21.60;99.90;;;;;;2611067;54;20134;-74
2023/06/19 07:16:51;;;;;;;12.97;12.37;;;21.40;99.90;;;;;;2611535;54;20656;-74
2023/06/19 07:22:41;;;;;;;12.07;11.47;;;21.40;99.90;;;;;;2611535;39;20550;-74
2023/06/19 07:25:33;;;;;;;12.43;11.30;;;21.30;99.90;;;;;;2612036;54;20569;-74
2023/06/19 07:28:00;;;;;;;12.30;11.27;;;21.20;99.90;;;;;;2611919;54;20444;-75
2023/06/19 07:33:47;;;;;;;12.00;11.33;;;20.90;99.90;;;;;;2612467;54;20360;-74
2023/06/19 07:39:35;;;;;;;10.73;10.23;;;21.10;99.90;;;;;;2613817;54;20149;-74
2023/06/19 07:45:23;;;;;;;12.20;10.67;;;21.00;99.90;;;;;;2611793;54;20154;-74
2023/06/19 07:51:11;;;;;;;9.87;9.37;;;20.80;99.90;;;;;;2613603;54;20403;-74
2023/06/19 07:56:58;;;;;;;10.03;9.53;;;20.80;99.90;;;;;;2613475;54;20119;-75
2023/06/19 08:02:46;;;;;;;10.10;9.40;;;21.20;99.90;;;;;;2612907;54;20138;-75
2023/06/19 08:08:34;;;;;;;11.33;10.63;;;21.50;99.90;;;;;;2613084;54;20138;-74
2023/06/19 08:14:21;;;;;;;11.40;10.80;;;21.40;99.90;;;;;;2614165;54;20134;-73
2023/06/19 08:20:09;;;;;;;12.37;11.77;;;22.30;99.90;;;;;;2612910;54;20214;-74
2023/06/19 08:25:57;;;;;;;12.83;12.23;;;22.60;99.90;;;;;;2613383;54;20367;-75
2023/06/19 08:31:45;;;;;;;12.50;11.90;;;22.90;99.90;;;;;;2613637;54;20134;-75
2023/06/19 08:37:33;;;;;;;12.10;11.50;;;22.30;99.90;;;;;;2614009;54;20201;-74
2023/06/19 08:43:21;;;;;;;11.20;10.30;;;21.50;99.90;;;;;;2614384;54;20411;-72
2023/06/19 08:49:10;;;;;;;12.50;11.50;;;21.70;99.90;;;;;;2612116;54;20274;-74
2023/06/19 08:58:24;;;;;;;11.93;11.43;;;23.20;99.90;;;;;;2614383;54;20371;-75
2023/06/19 09:04:13;;;;;;;12.83;12.13;;;23.80;99.90;;;;;;2608611;54;20507;-75
2023/06/19 09:16:40;;;;;;;13.27;12.57;;;23.60;99.90;;;;;;2610509;39;20916;-75
2023/06/19 09:22:29;;;;;;;14.00;13.30;;;23.80;99.90;;;;;;2611711;54;20376;-74
2023/06/19 09:28:27;;;;;;;13.93;12.83;;;24.60;96.90;;;;;;2613684;54;20400;-75
2023/06/19 09:34:15;;;;;;;14.57;13.57;;;24.90;99.90;;;;;;2607551;54;21150;-75
2023/06/19 09:46:11;;;;;;;15.10;14.40;;;25.70;79.50;;;;;;2610501;39;20771;-74
2023/06/19 09:51:59;;;;;;;15.00;14.20;;;24.20;85.50;;;;;;2609244;54;20391;-75
2023/06/19 09:55:06;;;;;;;16.57;15.77;;;24.30;94.30;;;;;;2609463;48;20546;-74
2023/06/19 09:57:33;;;;;;;15.20;14.30;;;25.80;72.50;;;;;;2613754;54;20161;-75
2023/06/19 10:09:56;;;;;;;15.60;14.57;;;24.90;89.50;;;;;;2610758;54;20367;-75
2023/06/19 10:15:44;;;;;;;17.17;16.33;;;24.80;68.80;;;;;;2613491;54;20372;-75
2023/06/19 10:22:03;;;;;;;17.27;16.37;;;26.80;47.30;;;;;;2613161;54;20383;-75
2023/06/19 10:27:52;;;;;;;16.70;15.80;;;26.80;41.80;;;;;;2611790;54;20396;-75
2023/06/19 10:33:40;;;;;;;19.83;18.63;;;26.90;33.10;;;;;;2613487;54;20406;-76
2023/06/19 10:36:43;;;;;;;17.67;16.73;;;27.20;31.00;;;;;;2613541;39;20704;-74
2023/06/19 10:39:10;;;;;;;16.33;15.53;;;28.40;29.70;;;;;;2612731;47;20419;-75
2023/06/19 10:45:03;;;;;;;19.00;17.77;;;26.90;28.20;;;;;;2613297;54;20411;-75
2023/06/19 10:50:52;;;;;;;18.83;17.93;;;27.50;23.50;;;;;;2613370;54;20406;-74
2023/06/19 10:53:47;;;;;;;18.60;17.70;;;27.50;19.50;;;;;;2611996;54;20392;-74
2023/06/19 10:56:13;;;;;;;20.23;19.00;;;28.40;18.70;;;;;;2611129;54;20143;-75
2023/06/19 11:02:00;;;;;;;19.80;18.80;;;28.30;16.80;;;;;;2609934;54;20126;-73
2023/06/19 11:07:53;;;;;;;18.60;17.47;;;27.40;19.50;;;;;;2609605;54;20170;-76
2023/06/19 11:13:43;;;;;;;18.87;17.77;;;27.90;11.80;;;;;;2609291;54;20387;-76
2023/06/19 11:19:33;;;;;;;18.37;17.47;;;27.80;16.00;;;;;;2610369;54;20363;-74
2023/06/19 11:25:20;;;;;;;17.50;16.70;;;28.30;16.20;;;;;;2612500;54;20432;-76
2023/06/19 11:31:09;;;;;;;17.67;16.87;;;29.20;12.00;;;;;;2612678;54;20624;-74
2023/06/19 11:36:56;;;;;;;18.20;17.17;;;28.20;11.70;;;;;;2612075;54;20366;-75
2023/06/19 11:42:46;;;;;;;17.63;16.73;;;28.50;11.40;;;;;;2612602;54;20194;-75
2023/06/19 11:48:37;;;;;;;18.73;17.63;;;27.60;14.40;;;;;;2611477;54;20391;-75
2023/06/19 12:04:40;;;;;;;19.77;18.67;;;28.90;8.80;;;;;;2612500;54;20394;-75
2023/06/19 12:10:30;;;;;;;19.73;18.73;;;29.00;7.50;;;;;;2612899;54;20138;-76
2023/06/19 12:16:17;;;;;;;19.33;18.33;;;29.50;5.10;;;;;;2613359;54;20359;-76
2023/06/19 12:22:05;;;;;;;18.40;17.50;;;29.40;2.60;;;;;;2611298;54;20234;-76
2023/06/19 12:27:52;;;;;;;21.43;20.23;;;29.30;4.90;;;;;;2608898;54;20440;-75
2023/06/19 12:33:43;;;;;;;18.63;17.73;;;29.10;3.80;;;;;;2610431;54;20147;-76
2023/06/19 12:39:31;;;;;;;19.67;18.67;;;29.50;6.10;;;;;;2609527;54;20415;-75
2023/06/19 12:45:19;;;;;;;19.30;18.37;;;29.80;3.80;;;;;;2611889;54;20379;-75
2023/06/19 12:51:06;;;;;;;20.13;18.70;;;28.50;2.70;;;;;;2609911;54;20129;-76
2023/06/19 12:53:47;;;;;;;20.20;19.10;;;29.10;3.10;;;;;;2610249;47;20408;-75
2023/06/19 12:56:13;;;;;;;19.70;18.70;;;29.00;1.50;;;;;;2609940;54;20159;-76
2023/06/19 13:02:01;;;;;;;19.67;18.57;;;28.20;3.80;;;;;;2610171;54;20229;-76
2023/06/19 13:07:48;;;;;;;20.23;19.23;;;28.60;4.70;;;;;;2613312;39;20233;-74
2023/06/19 13:13:36;;;;;;;19.47;18.37;;;28.30;4.40;;;;;;2612646;54;20127;-75
2023/06/19 13:19:24;;;;;;;19.17;18.17;;;28.30;5.60;;;;;;2610774;54;20234;-75
2023/06/19 13:25:12;;;;;;;18.27;17.37;;;29.80;3.20;;;;;;2610104;54;20391;-75
2023/06/19 13:31:00;;;;;;;19.03;17.63;;;29.60;1.00;;;;;;2609391;54;20138;-74
2023/06/19 13:36:48;;;;;;;19.83;18.50;;;29.90;1.00;;;;;;2610460;54;20159;-76
2023/06/19 13:42:36;;;;;;;20.10;19.10;;;29.70;1.00;;;;;;2610790;54;20949;-75
2023/06/19 13:48:24;;;;;;;20.10;19.00;;;28.30;1.30;;;;;;2610194;54;20138;-75
2023/06/19 13:58:20;;;;;;;20.73;19.50;;;29.00;2.50;;;;;;2610341;54;20471;-75
2023/06/19 14:04:11;;;;;;;20.00;19.00;;;28.90;1.00;;;;;;2614591;54;20426;-75
2023/06/19 14:09:59;;;;;;;19.77;18.77;;;30.00;1.00;;;;;;2613907;54;20419;-75
2023/06/19 14:15:47;;;;;;;19.47;18.37;;;30.50;1.00;;;;;;2614290;39;20782;-76
2023/06/19 14:21:35;;;;;;;18.97;17.97;;;29.90;1.00;;;;;;2613017;54;20158;-75
2023/06/19 14:27:22;;;;;;;17.90;17.10;;;30.30;1.00;;;;;;2612448;54;20114;-74
2023/06/19 14:33:14;;;;;;;19.27;18.37;;;30.30;1.00;;;;;;2614117;54;20150;-75
2023/06/19 14:39:02;;;;;;;19.40;18.50;;;29.10;1.00;;;;;;2610811;54;20933;-77
2023/06/19 14:44:50;;;;;;;19.10;18.30;;;30.20;1.00;;;;;;2614747;39;20494;-75
2023/06/19 14:50:38;;;;;;;17.97;17.17;;;30.30;1.00;;;;;;2613216;54;20146;-75
2023/06/19 14:53:48;;;;;;;19.87;18.90;;;29.60;1.00;;;;;;2613834;54;20439;-76
2023/06/19 14:56:13;;;;;;;19.70;18.80;;;30.00;1.00;;;;;;2613848;54;20265;-76
2023/06/19 15:02:02;;;;;;;18.53;17.63;;;30.00;1.00;;;;;;2612912;54;20185;-76
2023/06/19 15:07:49;;;;;;;19.17;18.00;;;29.60;1.00;;;;;;2611436;54;20451;-76
2023/06/19 15:13:37;;;;;;;17.70;16.90;;;29.90;1.00;;;;;;2613554;54;20163;-75
2023/06/19 15:19:25;;;;;;;19.07;17.77;;;29.60;1.00;;;;;;2614171;54;20130;-75
2023/06/19 15:25:12;;;;;;;28.60;26.30;;;30.10;1.00;;;;;;2611625;54;20147;-76
2023/06/19 15:31:00;;;;;;;17.97;17.17;;;29.60;1.00;;;;;;2612083;54;20138;-75
2023/06/19 15:36:48;;;;;;;16.73;16.07;;;29.80;1.00;;;;;;2612369;54;20170;-75
2023/06/19 15:42:36;;;;;;;18.50;17.60;;;29.80;1.00;;;;;;2612039;54;20146;-75
2023/06/19 15:48:24;;;;;;;19.30;18.20;;;30.30;1.00;;;;;;2614428;54;20490;-75
2023/06/19 15:58:15;;;;;;;20.97;19.60;;;29.60;1.00;;;;;;2614717;54;20493;-75
2023/06/19 16:04:03;;;;;;;27.27;25.57;;;29.70;1.00;;;;;;2614532;54;20386;-76
2023/06/19 16:09:50;;;;;;;20.30;19.40;;;29.50;1.00;;;;;;2612570;54;20134;-75
2023/06/19 16:15:38;;;;;;;19.23;18.33;;;29.20;1.00;;;;;;2613052;54;20169;-75
2023/06/19 16:18:41;;;;;;;18.23;17.43;;;30.00;1.00;;;;;;2611849;54;20407;-76
2023/06/19 16:21:07;;;;;;;20.33;19.33;;;29.60;1.00;;;;;;2613982;54;20158;-76
2023/06/19 16:26:55;;;;;;;18.23;17.43;;;30.50;1.00;;;;;;2613897;39;21073;-75
2023/06/19 16:32:43;;;;;;;17.70;16.90;;;29.30;1.00;;;;;;2614707;54;20501;-76
2023/06/19 16:38:31;;;;;;;17.73;16.93;;;29.60;1.00;;;;;;2614103;46;20165;-76
2023/06/19 16:44:19;;;;;;;17.50;16.60;;;29.40;1.00;;;;;;2614914;54;20133;-76
2023/06/19 16:50:07;;;;;;;18.70;17.80;;;29.40;1.00;;;;;;2614574;54;20146;-75
2023/06/19 16:59:17;;;;;;;18.20;17.40;;;29.30;1.00;;;;;;2614442;54;20398;-75
2023/06/19 17:05:05;;;;;;;18.50;17.60;;;29.30;1.00;;;;;;2614917;39;20596;-75
2023/06/19 17:10:53;;;;;;;18.23;17.30;;;29.70;1.00;;;;;;2614120;39;21045;-75
2023/06/19 17:16:42;;;;;;;18.10;17.20;;;29.00;1.00;;;;;;2614840;54;20146;-70
2023/06/19 17:22:30;;;;;;;17.83;16.83;;;28.80;1.00;;;;;;2610469;54;20403;-69
2023/06/19 17:28:17;;;;;;;17.70;17.00;;;28.70;1.00;;;;;;2611959;54;20127;-70
2023/06/19 17:34:05;;;;;;;17.27;16.40;;;28.00;1.00;;;;;;2610003;54;20261;-71
2023/06/19 17:39:53;;;;;;;18.27;17.47;;;28.20;1.00;;;;;;2612655;54;20146;-70
2023/06/19 17:45:40;;;;;;;17.97;17.00;;;28.00;1.00;;;;;;2612908;54;20158;-70
2023/06/19 17:51:28;;;;;;;18.50;17.43;;;27.60;1.00;;;;;;2611155;54;20141;-70
2023/06/19 17:54:52;;;;;;;18.07;17.17;;;27.50;1.00;;;;;;2610924;54;20395;-69
2023/06/19 17:57:17;;;;;;;19.47;18.23;;;27.50;1.00;;;;;;2614721;39;20214;-70
2023/06/19 18:03:08;;;;;;;17.97;17.17;;;27.30;1.00;;;;;;2613301;54;20145;-69
2023/06/19 18:08:55;;;;;;;19.23;18.07;;;27.00;1.00;;;;;;2613089;54;20406;-70
2023/06/19 18:14:44;;;;;;;18.00;17.10;;;26.80;1.00;;;;;;2613510;54;20122;-71
2023/06/19 18:20:31;;;;;;;19.87;18.77;;;26.70;1.00;;;;;;2612877;54;20363;-70
2023/06/19 18:26:19;;;;;;;19.40;18.40;;;26.50;1.00;;;;;;2612764;54;20129;-69
2023/06/19 18:32:07;;;;;;;19.40;18.50;;;26.60;1.00;;;;;;2611745;54;20169;-71
2023/06/19 18:37:55;;;;;;;20.27;19.03;;;26.50;2.00;;;;;;2611812;39;20433;-70
2023/06/19 18:43:42;;;;;;;20.03;19.13;;;26.30;1.50;;;;;;2613297;54;20142;-70
2023/06/19 18:49:30;;;;;;;19.00;18.03;;;26.10;1.40;;;;;;2611632;54;20360;-70
2023/06/19 19:05:43;;;;;;;18.83;17.60;;;25.20;12.60;;;;;;2612761;54;20439;-70
2023/06/19 19:11:31;;;;;;;19.90;18.90;;;25.00;15.60;;;;;;2612584;54;20138;-70
2023/06/19 19:17:19;;;;;;;20.00;18.73;;;24.70;20.30;;;;;;2613286;39;20818;-70
2023/06/19 19:23:06;;;;;;;20.27;18.97;;;24.50;25.10;;;;;;2610798;54;20235;-70
2023/06/19 19:28:53;;;;;;;21.37;20.10;;;24.30;23.70;;;;;;2608721;54;20154;-70
2023/06/19 19:34:40;;;;;;;21.93;20.50;;;24.20;23.40;;;;;;2612721;39;20508;-71
2023/06/19 19:40:28;;;;;;;19.70;18.50;;;24.00;24.80;;;;;;2610216;54;20210;-69
2023/06/19 19:46:16;;;;;;;19.90;18.60;;;23.80;30.40;;;;;;2613565;54;20276;-70
2023/06/19 19:52:04;;;;;;;23.00;21.57;;;23.60;38.60;;;;;;2613664;54;20134;-71
2023/06/19 19:54:49;;;;;;;22.73;20.87;;;23.40;45.00;;;;;;2612467;54;20941;-71
2023/06/19 19:57:14;;;;;;;21.57;20.07;;;23.20;46.20;;;;;;2612846;54;20425;-70
2023/06/19 20:03:02;;;;;;;20.93;19.77;;;23.20;52.00;;;;;;2611450;54;20158;-70
2023/06/19 20:08:50;;;;;;;22.20;20.57;;;22.90;52.60;;;;;;2608049;54;20130;-70
2023/06/19 20:14:39;;;;;;;19.90;18.80;;;22.70;60.10;;;;;;2605289;54;20230;-70
2023/06/19 20:20:26;;;;;;;21.20;19.90;;;22.60;77.50;;;;;;2607656;39;20833;-70
2023/06/19 20:26:14;;;;;;;23.70;21.53;;;22.60;93.60;;;;;;2606692;39;20618;-71
2023/06/19 20:32:02;;;;;;;21.00;19.60;;;22.50;99.50;;;;;;2606130;54;20130;-69
2023/06/19 20:37:50;;;;;;;21.07;19.87;;;22.40;99.90;;;;;;2611732;54;20933;-70
2023/06/19 20:43:38;;;;;;;22.57;20.80;;;22.40;99.90;;;;;;2611329;54;20235;-70
2023/06/19 20:49:25;;;;;;;20.97;19.67;;;22.30;99.90;;;;;;2613193;54;20659;-71
2023/06/19 20:59:19;;;;;;;20.20;19.00;;;22.30;99.90;;;;;;2614609;54;20391;-70
2023/06/19 21:05:08;;;;;;;20.27;18.70;;;22.50;95.60;;;;;;2607981;31;20770;-71
2023/06/19 21:10:57;;;;;;;21.50;19.90;;;22.30;99.90;;;;;;2608312;54;20407;-70
2023/06/19 21:16:45;;;;;;;19.97;18.87;;;22.10;99.90;;;;;;2612389;54;20386;-70
2023/06/19 21:22:33;;;;;;;21.90;20.43;;;22.30;96.20;;;;;;2612790;54;20139;-70
2023/06/19 21:28:21;;;;;;;20.50;19.30;;;22.30;99.90;;;;;;2608472;54;20162;-70
2023/06/19 21:34:09;;;;;;;22.50;20.40;;;22.20;99.90;;;;;;2611639;54;20893;-70
2023/06/19 21:39:57;;;;;;;20.53;19.30;;;22.10;99.90;;;;;;2609099;54;20138;-70
2023/06/19 21:45:45;;;;;;;20.70;19.47;;;22.20;99.90;;;;;;2610085;54;20133;-69
2023/06/19 21:51:34;;;;;;;21.53;20.10;;;22.20;99.90;;;;;;2610617;54;20125;-70
2023/06/19 21:54:48;;;;;;;20.60;19.30;;;22.10;99.90;;;;;;2609679;47;20408;-69
2023/06/19 21:57:14;;;;;;;23.20;21.60;;;22.00;99.90;;;;;;2610367;54;20399;-70
2023/06/19 22:03:02;;;;;;;21.63;20.33;;;22.10;99.90;;;;;;2608449;54;20115;-69
2023/06/19 22:08:49;;;;;;;21.10;19.70;;;22.10;99.90;;;;;;2608492;54;20166;-70
2023/06/19 22:14:40;;;;;;;21.30;20.00;;;22.10;99.90;;;;;;2611990;46;20145;-69
2023/06/19 22:20:28;;;;;;;21.73;19.90;;;22.00;99.90;;;;;;2611960;54;20391;-69
2023/06/19 22:26:15;;;;;;;20.73;19.43;;;21.90;99.90;;;;;;2610637;54;20242;-70
2023/06/19 22:32:03;;;;;;;21.10;19.80;;;21.80;99.90;;;;;;2611038;39;21026;-70
2023/06/19 22:37:51;;;;;;;21.37;19.80;;;21.70;99.90;;;;;;2608468;54;20503;-70
2023/06/19 22:43:39;;;;;;;23.07;21.50;;;21.80;99.90;;;;;;2610507;54;20151;-68
2023/06/19 22:49:29;;;;;;;24.23;22.53;;;21.80;99.90;;;;;;2610183;54;20852;-69
2023/06/19 22:59:19;;;;;;;26.07;24.30;;;21.70;99.90;;;;;;2610784;47;20938;-69
2023/06/19 23:05:07;;;;;;;23.27;21.83;;;21.70;99.90;;;;;;2609338;31;20780;-69
2023/06/19 23:10:54;;;;;;;22.60;21.00;;;21.60;99.90;;;;;;2608890;54;20387;-69
2023/06/19 23:16:42;;;;;;;22.50;21.00;;;21.60;99.90;;;;;;2613959;54;20133;-69
2023/06/19 23:22:30;;;;;;;22.80;21.30;;;21.50;99.90;;;;;;2614003;54;20907;-69
2023/06/19 23:28:18;;;;;;;23.57;21.90;;;21.40;99.90;;;;;;2610179;39;20536;-69
2023/06/19 23:34:06;;;;;;;22.17;20.67;;;21.50;99.90;;;;;;2609030;54;20651;-69
2023/06/19 23:39:54;;;;;;;21.23;19.83;;;21.50;99.90;;;;;;2609005;54;20371;-70
2023/06/19 23:45:42;;;;;;;21.03;19.83;;;21.50;99.90;;;;;;2608793;54;20145;-68
2023/06/19 23:51:29;;;;;;;22.03;20.67;;;21.40;99.90;;;;;;2609266;54;20441;-69
2023/06/19 23:54:48;;;;;;;21.07;19.80;;;21.40;99.90;;;;;;2609084;47;20503;-69
2023/06/19 23:57:14;;;;;;;23.10;21.57;;;21.40;99.90;;;;;;2608878;54;20159;-69
